Skip Navigation Links Skip Navigation Links

Current Weather

Allen Aaf, Delta Junction Ft Greely, Alaska

For information only: do not use for flight planning or navigation.
Latest weather
Observation time Tuesday, October 26, 2021 8:53 PM AKDT
Local time Tuesday, October 26, 2021 9:41 PM AKDT
Flight conditions Instrument Meteorological Conditions
Winds
Wind direction West (260°)
Wind speed 6 mph
Visibility 7 mi.
Sky condition
Ceiling 900 ft. overcast
Cloud layer overcast 900 ft.
Temperature 26°F
Dewpoint 23°F
Altimeter 29.36 in.Hg
Precipitation
Precipitation last hour 0.01 in.
Derived measurements
Relative humidity 88%
Wind chill 19°F
Density altitude -254 ft.
Sea-level pressure 29.44 in.Hg
Remarks
Automated weather observing station with precipitation discriminator.
METAR PABI 270453Z 26005KT 7SM OVC009 M03/M05 A2936 RMK AO2 SLP970 P0001 T10331050

Settings

Location code

InnerDrive.Weather 4.0.6770.0 Release CLR 4.0.30319.42000
Copyright ©2018 Inner Drive Technology. All rights reserved. Portions Copyright ©1986-2018 David Braverman.

Find weather

Site navigation


Skip Navigation Links

Place info

Page info

PayPal - The safer, easier way to pay online!

Return home.

Copyright ©2021 Inner Drive Technology. Purveyors of fine, hand-crafted computer software. Page printed 2021-10-27T05:41:36 UTC.